createdAt,value
2022-10-18T00:00:46.329Z,17.18
2022-10-18T00:03:39.028Z,17.08
2022-10-18T00:06:11.768Z,17.09
2022-10-18T00:08:43.818Z,17.10
2022-10-18T00:11:15.975Z,17.05
2022-10-18T00:13:47.835Z,17.02
2022-10-18T00:16:20.373Z,17.00
2022-10-18T00:18:52.487Z,17.01
2022-10-18T00:21:26.488Z,16.98
2022-10-18T00:23:58.379Z,16.98
2022-10-18T00:26:31.424Z,16.88
2022-10-18T00:29:06.672Z,16.95
2022-10-18T00:31:39.552Z,16.89
2022-10-18T00:34:15.750Z,16.88
2022-10-18T00:36:47.915Z,16.86
2022-10-18T00:39:21.837Z,16.84
2022-10-18T00:41:54.258Z,16.79
2022-10-18T00:45:03.407Z,16.77
2022-10-18T00:47:36.048Z,16.69
2022-10-18T00:50:09.506Z,16.67
2022-10-18T00:52:43.688Z,16.63
2022-10-18T00:55:15.968Z,16.59
2022-10-18T00:57:50.066Z,16.59
2022-10-18T01:00:22.719Z,16.57
2022-10-18T01:02:55.505Z,16.56
2022-10-18T01:05:28.710Z,16.56
2022-10-18T01:08:15.459Z,16.56
2022-10-18T01:10:55.703Z,16.54
2022-10-18T01:13:40.503Z,16.52
2022-10-18T01:16:20.402Z,16.47
2022-10-18T01:18:59.499Z,16.44
2022-10-18T01:21:40.440Z,16.39
2022-10-18T01:24:38.567Z,16.36
2022-10-18T01:27:41.110Z,16.35
2022-10-18T01:30:37.955Z,16.32
2022-10-18T01:33:18.389Z,16.26
2022-10-18T01:35:57.690Z,16.33
2022-10-18T01:38:32.730Z,16.32
2022-10-18T01:41:04.556Z,16.36
2022-10-18T01:43:38.261Z,16.35
2022-10-18T01:46:12.827Z,16.34
2022-10-18T01:48:45.018Z,16.32
2022-10-18T01:51:19.551Z,16.33
2022-10-18T01:53:53.171Z,16.34
2022-10-18T01:56:33.625Z,16.33
2022-10-18T01:59:31.693Z,16.30
2022-10-18T02:02:11.048Z,16.24
2022-10-18T02:04:51.059Z,16.27
2022-10-18T02:07:33.430Z,16.27
2022-10-18T02:10:11.411Z,16.25
2022-10-18T02:12:47.688Z,16.23
2022-10-18T02:15:23.113Z,16.24
2022-10-18T02:17:56.095Z,16.20
2022-10-18T02:20:29.841Z,16.21
2022-10-18T02:23:03.824Z,16.18
2022-10-18T02:25:38.327Z,16.18
2022-10-18T02:28:10.553Z,16.14
2022-10-18T02:30:48.642Z,16.07
2022-10-18T02:33:27.260Z,16.09
2022-10-18T02:36:04.717Z,15.99
2022-10-18T02:38:38.809Z,16.04
2022-10-18T02:41:11.065Z,15.99
2022-10-18T02:43:42.896Z,16.09
2022-10-18T02:46:15.198Z,16.11
2022-10-18T02:48:49.605Z,16.11
2022-10-18T02:51:21.798Z,16.09
2022-10-18T02:53:53.991Z,16.08
2022-10-18T02:56:25.967Z,16.06
2022-10-18T02:58:57.797Z,16.06
2022-10-18T03:01:30.091Z,16.07
2022-10-18T03:04:02.382Z,16.06
2022-10-18T03:06:35.436Z,16.03
2022-10-18T03:09:08.207Z,16.00
2022-10-18T03:11:40.357Z,15.99
2022-10-18T03:14:12.447Z,15.98
2022-10-18T03:16:44.620Z,15.96
2022-10-18T03:19:16.735Z,15.96
2022-10-18T03:21:48.676Z,15.92
2022-10-18T03:24:20.626Z,15.89
2022-10-18T03:26:52.485Z,15.88
2022-10-18T03:29:24.288Z,15.87
2022-10-18T03:31:56.148Z,15.86
2022-10-18T03:34:28.146Z,15.85
2022-10-18T03:37:03.372Z,15.85
2022-10-18T03:39:37.534Z,15.85
2022-10-18T03:42:09.746Z,15.84
2022-10-18T03:44:41.974Z,15.80
2022-10-18T03:47:13.965Z,15.72
2022-10-18T03:49:45.812Z,15.64
2022-10-18T03:52:17.746Z,15.73
2022-10-18T03:54:50.262Z,15.74
2022-10-18T03:57:22.507Z,15.71
2022-10-18T03:59:54.386Z,15.67
2022-10-18T04:02:26.407Z,15.71
2022-10-18T04:04:58.799Z,15.69
2022-10-18T04:07:30.833Z,15.67
2022-10-18T04:10:03.276Z,15.65
2022-10-18T04:12:35.437Z,15.47
2022-10-18T04:15:08.729Z,15.56
2022-10-18T04:17:40.789Z,15.61
2022-10-18T04:20:14.460Z,15.54
2022-10-18T04:22:46.496Z,15.56
2022-10-18T04:25:18.814Z,15.61
2022-10-18T04:27:50.781Z,15.66
2022-10-18T04:30:22.604Z,15.70
2022-10-18T04:32:54.766Z,15.65
2022-10-18T04:35:28.326Z,15.70
2022-10-18T04:38:00.675Z,15.78
2022-10-18T04:40:33.283Z,15.65
2022-10-18T04:43:05.765Z,15.76
2022-10-18T04:45:37.994Z,15.77
2022-10-18T04:48:10.598Z,15.79
2022-10-18T04:50:45.178Z,15.83
2022-10-18T04:53:19.929Z,15.87
2022-10-18T04:55:52.443Z,15.91
2022-10-18T04:58:24.365Z,15.96
2022-10-18T05:00:56.229Z,15.96
2022-10-18T05:03:28.358Z,15.96
2022-10-18T05:06:03.069Z,15.99
2022-10-18T05:08:38.537Z,15.99
2022-10-18T05:13:44.941Z,16.06
2022-10-18T05:16:19.130Z,16.10
2022-10-18T05:18:51.093Z,16.12
2022-10-18T05:21:23.412Z,16.16
2022-10-18T05:23:59.748Z,16.17
2022-10-18T05:26:32.215Z,16.21
2022-10-18T05:29:04.867Z,16.22
2022-10-18T05:31:37.059Z,16.24
2022-10-18T05:34:09.519Z,16.27
2022-10-18T05:36:41.441Z,16.28
2022-10-18T05:39:13.751Z,16.28
2022-10-18T05:41:47.446Z,16.29
2022-10-18T05:44:20.950Z,16.30
2022-10-18T05:46:52.842Z,16.31
2022-10-18T05:49:25.183Z,16.32
2022-10-18T05:51:57.101Z,16.33
2022-10-18T05:54:29.170Z,16.34
2022-10-18T05:57:01.110Z,16.30
2022-10-18T05:59:33.139Z,16.40
2022-10-18T06:02:05.050Z,16.46
2022-10-18T06:04:37.108Z,16.50
2022-10-18T06:07:12.190Z,16.51
2022-10-18T06:09:44.259Z,16.51
2022-10-18T06:12:16.559Z,16.54
2022-10-18T06:14:49.492Z,16.58
2022-10-18T06:17:21.630Z,16.59
2022-10-18T06:19:53.575Z,16.62
2022-10-18T06:22:25.759Z,16.68
2022-10-18T06:24:57.696Z,16.72
2022-10-18T06:27:31.646Z,16.76
2022-10-18T06:30:04.765Z,16.81
2022-10-18T06:32:36.749Z,16.90
2022-10-18T06:35:12.236Z,16.93
2022-10-18T06:37:44.529Z,16.94
2022-10-18T06:40:16.748Z,16.97
2022-10-18T06:42:59.924Z,17.00
2022-10-18T06:45:33.084Z,17.07
2022-10-18T06:48:05.070Z,17.03
2022-10-18T06:50:37.172Z,17.05
2022-10-18T06:53:09.738Z,17.11
2022-10-18T06:55:41.783Z,17.07
2022-10-18T06:58:13.729Z,17.10
2022-10-18T07:00:47.084Z,17.05
2022-10-18T07:03:19.103Z,17.07
2022-10-18T07:05:51.095Z,17.09
2022-10-18T07:08:23.027Z,17.12
2022-10-18T07:10:55.499Z,17.14
2022-10-18T07:13:32.553Z,17.15
2022-10-18T07:16:07.888Z,17.21
2022-10-18T07:18:42.997Z,17.30
2022-10-18T07:21:15.763Z,17.33
2022-10-18T07:23:48.287Z,17.35
2022-10-18T07:26:22.633Z,17.35
2022-10-18T07:28:57.954Z,17.44
2022-10-18T07:31:30.842Z,17.45
2022-10-18T07:34:04.533Z,17.48
2022-10-18T07:36:36.723Z,17.51
2022-10-18T07:39:08.856Z,17.53
2022-10-18T07:41:40.801Z,17.57
2022-10-18T07:44:12.871Z,17.58
2022-10-18T07:46:45.026Z,17.63
2022-10-18T07:49:17.061Z,17.66
2022-10-18T07:51:49.258Z,17.69
2022-10-18T07:54:22.405Z,17.71
2022-10-18T07:56:54.575Z,17.75
2022-10-18T07:59:26.476Z,17.78
2022-10-18T08:01:58.417Z,17.81
2022-10-18T08:04:30.371Z,17.86
2022-10-18T08:07:02.319Z,17.87
2022-10-18T08:09:34.171Z,17.92
2022-10-18T08:12:06.536Z,17.95
2022-10-18T08:14:38.983Z,17.98
2022-10-18T08:17:11.562Z,18.03
2022-10-18T08:19:52.833Z,18.09
2022-10-18T08:22:35.448Z,18.14
2022-10-18T08:25:08.578Z,18.12
2022-10-18T08:27:40.490Z,18.22
2022-10-18T08:30:14.480Z,18.26
2022-10-18T08:32:46.640Z,18.30
2022-10-18T08:35:18.744Z,18.31
2022-10-18T08:37:51.397Z,18.35
2022-10-18T08:40:23.808Z,18.39
2022-10-18T08:43:04.682Z,18.40
2022-10-18T08:45:43.161Z,18.43
2022-10-18T08:48:24.716Z,18.45
2022-10-18T08:50:57.465Z,18.46
2022-10-18T08:53:37.602Z,18.50
2022-10-18T08:56:15.569Z,18.53
2022-10-18T08:58:47.666Z,18.56
2022-10-18T09:01:30.129Z,18.59
2022-10-18T09:04:18.019Z,18.60
2022-10-18T09:07:01.690Z,18.64
2022-10-18T09:09:41.745Z,18.62
2022-10-18T09:12:32.645Z,18.61
2022-10-18T09:15:16.713Z,18.59
2022-10-18T09:18:05.620Z,18.61
2022-10-18T09:20:54.768Z,18.63
2022-10-18T09:23:40.582Z,18.62
2022-10-18T09:26:16.964Z,18.62
2022-10-18T09:29:02.366Z,18.63
2022-10-18T09:31:47.595Z,18.62
2022-10-18T09:34:28.430Z,18.60
2022-10-18T09:37:01.138Z,18.55
2022-10-18T09:39:37.322Z,18.54
2022-10-18T09:42:17.557Z,18.53
2022-10-18T09:44:54.695Z,18.52
2022-10-18T09:47:33.933Z,18.54
2022-10-18T09:50:17.269Z,18.54
2022-10-18T09:52:53.279Z,18.55
2022-10-18T09:55:32.247Z,18.54
2022-10-18T09:58:07.825Z,18.45
2022-10-18T10:00:45.799Z,18.53
2022-10-18T10:03:17.666Z,18.52
2022-10-18T10:06:15.976Z,18.51
2022-10-18T10:08:55.263Z,18.54
2022-10-18T10:11:32.772Z,18.51
2022-10-18T10:16:54.501Z,18.45
2022-10-18T10:19:30.711Z,18.39
2022-10-18T10:22:07.649Z,18.36
2022-10-18T10:24:48.812Z,18.33
2022-10-18T10:27:27.497Z,18.36
2022-10-18T10:30:06.559Z,18.37
2022-10-18T10:32:50.514Z,18.38
2022-10-18T10:35:41.424Z,18.36
2022-10-18T10:38:30.289Z,18.36
2022-10-18T10:41:02.571Z,18.36
2022-10-18T10:43:39.956Z,18.34
2022-10-18T10:46:15.486Z,18.29
2022-10-18T10:49:04.179Z,18.17
2022-10-18T10:51:50.580Z,18.19
2022-10-18T10:54:35.668Z,18.20
2022-10-18T10:57:25.183Z,18.21
2022-10-18T10:59:58.354Z,18.20
2022-10-18T11:02:33.756Z,18.21
2022-10-18T11:05:25.773Z,18.22
2022-10-18T11:08:00.683Z,18.25
2022-10-18T11:10:32.956Z,18.22
2022-10-18T11:13:16.214Z,18.24
2022-10-18T11:15:53.816Z,18.21
2022-10-18T11:18:31.389Z,18.20
2022-10-18T11:21:08.167Z,18.21
2022-10-18T11:23:42.632Z,18.16
2022-10-18T11:26:39.466Z,18.16
2022-10-18T11:29:32.519Z,18.14
2022-10-18T11:32:13.324Z,18.13
2022-10-18T11:34:55.972Z,18.05
2022-10-18T11:37:42.427Z,18.01
2022-10-18T11:40:31.747Z,17.95
2022-10-18T11:43:14.048Z,17.95
2022-10-18T11:45:52.654Z,17.94
2022-10-18T11:48:43.869Z,17.95
2022-10-18T11:51:35.390Z,17.94
2022-10-18T11:54:33.248Z,17.91
2022-10-18T11:57:17.759Z,17.84
2022-10-18T11:59:57.523Z,17.81
2022-10-18T12:02:49.228Z,17.76
2022-10-18T12:05:24.301Z,17.75
2022-10-18T12:08:06.459Z,17.72
2022-10-18T12:10:52.653Z,17.71
2022-10-18T12:13:40.101Z,17.68
2022-10-18T12:16:12.843Z,17.69
2022-10-18T12:18:54.172Z,17.69
2022-10-18T12:21:28.317Z,17.65
2022-10-18T12:24:03.914Z,17.65
2022-10-18T12:26:36.847Z,17.64
2022-10-18T12:29:25.157Z,17.61
2022-10-18T12:32:00.970Z,17.61
2022-10-18T12:34:38.306Z,17.61
2022-10-18T12:37:35.434Z,17.65
2022-10-18T12:40:16.996Z,17.61
2022-10-18T12:42:53.496Z,17.61
2022-10-18T12:45:28.345Z,17.61
2022-10-18T12:48:05.652Z,17.60
2022-10-18T12:50:40.610Z,17.63
2022-10-18T12:53:19.019Z,17.61
2022-10-18T12:55:52.716Z,17.61
2022-10-18T12:58:32.803Z,17.62
2022-10-18T13:01:07.718Z,17.58
2022-10-18T13:03:56.340Z,17.59
2022-10-18T13:06:48.502Z,17.61
2022-10-18T13:09:22.801Z,17.59
2022-10-18T13:12:01.935Z,17.57
2022-10-18T13:15:12.702Z,17.57
2022-10-18T13:17:59.783Z,17.56
2022-10-18T13:20:38.545Z,17.56
2022-10-18T13:23:31.683Z,17.59
2022-10-18T13:26:17.947Z,17.59
2022-10-18T13:28:56.309Z,17.55
2022-10-18T13:31:38.731Z,17.50
2022-10-18T13:34:33.477Z,17.51
2022-10-18T13:37:07.489Z,17.55
2022-10-18T13:39:40.941Z,17.54
2022-10-18T13:42:31.946Z,17.55
2022-10-18T13:45:39.043Z,17.56
2022-10-18T13:48:52.922Z,17.60
2022-10-18T13:51:48.562Z,17.60
2022-10-18T13:54:32.097Z,17.59
2022-10-18T13:57:22.166Z,17.57
2022-10-18T14:00:18.044Z,17.55
2022-10-18T14:03:44.050Z,17.56
2022-10-18T14:06:15.164Z,17.51
2022-10-18T14:08:53.648Z,17.48
2022-10-18T14:11:33.590Z,17.51
2022-10-18T14:14:15.263Z,17.51
2022-10-18T14:16:53.671Z,17.51
2022-10-18T14:19:34.848Z,17.48
2022-10-18T14:22:16.783Z,17.48
2022-10-18T14:24:54.045Z,17.46
2022-10-18T14:27:28.375Z,17.45
2022-10-18T14:30:18.740Z,17.43
2022-10-18T14:32:54.579Z,17.46
2022-10-18T14:35:33.182Z,17.45
2022-10-18T14:38:07.349Z,17.48
2022-10-18T14:40:41.452Z,17.49
2022-10-18T14:43:16.747Z,17.48
2022-10-18T14:45:48.678Z,17.49
2022-10-18T14:48:24.203Z,17.45
2022-10-18T14:51:00.673Z,17.46
2022-10-18T14:53:39.196Z,17.45
2022-10-18T14:56:24.079Z,17.47
2022-10-18T14:58:57.455Z,17.48
2022-10-18T15:01:33.178Z,17.47
2022-10-18T15:04:09.411Z,17.46
2022-10-18T15:06:45.144Z,17.51
2022-10-18T15:09:21.695Z,17.51
2022-10-18T15:11:57.802Z,17.45
2022-10-18T15:14:30.628Z,17.43
2022-10-18T15:17:08.653Z,17.40
2022-10-18T15:19:42.951Z,17.50
2022-10-18T15:22:32.160Z,17.46
2022-10-18T15:25:16.585Z,17.45
2022-10-18T15:27:51.433Z,17.39
2022-10-18T15:30:28.330Z,17.38
2022-10-18T15:33:02.529Z,17.38
2022-10-18T15:35:36.885Z,17.38
2022-10-18T15:38:25.509Z,17.37
2022-10-18T15:40:58.291Z,17.35
2022-10-18T15:43:38.265Z,17.35
2022-10-18T15:46:32.858Z,17.34
2022-10-18T15:49:52.536Z,17.32
2022-10-18T15:52:44.277Z,17.45
2022-10-18T15:55:50.045Z,17.41
2022-10-18T15:58:23.188Z,17.41
2022-10-18T16:00:58.475Z,17.42
2022-10-18T16:03:34.049Z,17.45
2022-10-18T16:06:12.238Z,17.43
2022-10-18T16:08:48.634Z,17.36
2022-10-18T16:11:23.506Z,17.40
2022-10-18T16:13:57.802Z,17.38
2022-10-18T16:16:32.880Z,17.26
2022-10-18T16:19:05.628Z,17.18
2022-10-18T16:21:39.816Z,17.27
2022-10-18T16:24:12.143Z,17.27
2022-10-18T16:26:44.221Z,17.20
2022-10-18T16:29:18.804Z,17.28
2022-10-18T16:31:51.566Z,17.26
2022-10-18T16:34:24.187Z,17.30
2022-10-18T16:36:56.782Z,17.38
2022-10-18T16:39:32.232Z,17.30
2022-10-18T16:42:04.701Z,17.35
2022-10-18T16:44:36.820Z,17.37
2022-10-18T16:47:08.662Z,17.31
2022-10-18T16:49:40.962Z,17.31
2022-10-18T16:52:12.893Z,17.31
2022-10-18T16:54:45.420Z,17.36
2022-10-18T16:57:17.313Z,17.31
2022-10-18T16:59:49.303Z,17.25
2022-10-18T17:02:21.146Z,17.16
2022-10-18T17:04:53.157Z,17.16
2022-10-18T17:07:27.122Z,17.20
2022-10-18T17:09:59.875Z,17.31
2022-10-18T17:12:32.589Z,17.29
2022-10-18T17:15:05.628Z,17.28
2022-10-18T17:17:38.254Z,17.26
2022-10-18T17:20:18.813Z,17.20
2022-10-18T17:22:51.371Z,17.20
2022-10-18T17:25:23.402Z,17.16
2022-10-18T17:27:56.120Z,17.15
2022-10-18T17:30:28.127Z,17.06
2022-10-18T17:33:00.320Z,17.10
2022-10-18T17:35:32.485Z,17.08
2022-10-18T17:38:05.387Z,17.07
2022-10-18T17:40:40.481Z,16.91
2022-10-18T17:43:13.982Z,17.01
2022-10-18T17:45:51.168Z,16.96
2022-10-18T17:48:24.519Z,17.05
2022-10-18T17:50:56.880Z,17.06
2022-10-18T17:53:30.835Z,17.00
2022-10-18T17:56:04.128Z,16.98
2022-10-18T17:58:36.318Z,16.85
2022-10-18T18:01:19.135Z,16.86
2022-10-18T18:03:52.238Z,16.87
2022-10-18T18:06:30.912Z,16.88
2022-10-18T18:09:07.395Z,16.82
2022-10-18T18:11:42.148Z,16.74
2022-10-18T18:14:16.106Z,16.71
2022-10-18T18:16:49.040Z,16.75
2022-10-18T18:19:21.073Z,16.73
2022-10-18T18:21:55.161Z,16.73
2022-10-18T18:24:27.775Z,16.61
2022-10-18T18:27:00.249Z,16.62
2022-10-18T18:29:32.429Z,16.52
2022-10-18T18:32:04.493Z,16.37
2022-10-18T18:34:36.624Z,16.45
2022-10-18T18:37:08.730Z,16.47
2022-10-18T18:39:40.925Z,16.54
2022-10-18T18:42:12.992Z,16.46
2022-10-18T18:44:46.124Z,16.49
2022-10-18T18:47:21.749Z,16.45
2022-10-18T18:49:54.017Z,16.42
2022-10-18T18:52:26.846Z,16.36
2022-10-18T18:54:58.979Z,16.29
2022-10-18T18:57:31.404Z,16.26
2022-10-18T19:00:03.686Z,16.31
2022-10-18T19:02:35.655Z,16.22
2022-10-18T19:05:08.577Z,16.16
2022-10-18T19:07:40.632Z,16.14
2022-10-18T19:10:13.431Z,16.16
2022-10-18T19:12:45.413Z,16.17
2022-10-18T19:15:20.873Z,16.17
2022-10-18T19:17:52.842Z,16.04
2022-10-18T19:20:24.900Z,16.10
2022-10-18T19:22:57.460Z,16.07
2022-10-18T19:25:29.818Z,16.10
2022-10-18T19:28:01.861Z,16.05
2022-10-18T19:30:33.787Z,16.03
2022-10-18T19:33:05.868Z,15.94
2022-10-18T19:35:38.480Z,15.98
2022-10-18T19:38:10.719Z,15.98
2022-10-18T19:40:42.770Z,15.95
2022-10-18T19:43:15.272Z,15.93
2022-10-18T19:45:48.071Z,15.96
2022-10-18T19:48:20.120Z,16.05
2022-10-18T19:50:53.017Z,16.02
2022-10-18T19:53:25.119Z,15.99
2022-10-18T19:56:01.451Z,15.88
2022-10-18T19:58:34.107Z,15.93
2022-10-18T20:01:06.071Z,15.93
2022-10-18T20:03:38.468Z,15.88
2022-10-18T20:06:10.471Z,15.94
2022-10-18T20:11:22.262Z,15.83
2022-10-18T20:13:53.440Z,15.81
2022-10-18T20:16:28.861Z,15.86
2022-10-18T20:19:02.827Z,15.85
2022-10-18T20:21:36.079Z,15.79
2022-10-18T20:24:12.181Z,15.78
2022-10-18T20:26:44.876Z,15.70
2022-10-18T20:29:17.057Z,15.66
2022-10-18T20:31:49.155Z,15.77
2022-10-18T20:34:25.767Z,15.71
2022-10-18T20:36:57.952Z,15.73
2022-10-18T20:39:30.475Z,15.68
2022-10-18T20:42:02.858Z,15.69
2022-10-18T20:44:36.465Z,15.65
2022-10-18T20:47:08.696Z,15.61
2022-10-18T20:49:40.812Z,15.62
2022-10-18T20:52:12.921Z,15.58
2022-10-18T20:54:44.866Z,15.57
2022-10-18T20:57:16.852Z,15.61
2022-10-18T20:59:49.390Z,15.55
2022-10-18T21:02:21.311Z,15.58
2022-10-18T21:04:53.340Z,15.48
2022-10-18T21:07:25.642Z,15.46
2022-10-18T21:09:57.796Z,15.52
2022-10-18T21:12:30.106Z,15.58
2022-10-18T21:15:02.309Z,15.52
2022-10-18T21:17:34.663Z,15.49
2022-10-18T21:20:08.379Z,15.46
2022-10-18T21:22:40.404Z,15.46
2022-10-18T21:25:12.833Z,15.46
2022-10-18T21:27:45.165Z,15.47
2022-10-18T21:30:17.584Z,15.43
2022-10-18T21:32:52.501Z,15.38
2022-10-18T21:35:24.812Z,15.35
2022-10-18T21:37:56.744Z,15.37
2022-10-18T21:40:28.815Z,15.37
2022-10-18T21:43:00.852Z,15.32
2022-10-18T21:45:32.991Z,15.26
2022-10-18T21:48:05.577Z,15.20
2022-10-18T21:50:37.952Z,15.08
2022-10-18T21:53:09.793Z,15.14
2022-10-18T21:55:41.945Z,15.05
2022-10-18T21:58:14.085Z,14.99
2022-10-18T22:00:46.011Z,14.97
2022-10-18T22:03:17.867Z,15.04
2022-10-18T22:05:57.839Z,15.05
2022-10-18T22:08:29.991Z,15.03
2022-10-18T22:11:02.985Z,15.03
2022-10-18T22:13:35.179Z,15.05
2022-10-18T22:16:09.265Z,15.00
2022-10-18T22:18:41.817Z,14.92
2022-10-18T22:21:15.853Z,14.93
2022-10-18T22:23:49.491Z,14.97
2022-10-18T22:26:23.399Z,14.94
2022-10-18T22:28:59.180Z,14.92
2022-10-18T22:31:33.205Z,14.94
2022-10-18T22:34:07.655Z,14.89
2022-10-18T22:36:39.603Z,14.86
2022-10-18T22:39:13.175Z,14.87
2022-10-18T22:41:48.936Z,14.83
2022-10-18T22:44:21.348Z,14.81
2022-10-18T22:46:53.709Z,14.81
2022-10-18T22:49:25.900Z,14.79
2022-10-18T22:51:58.177Z,14.80
2022-10-18T22:54:30.059Z,14.81
2022-10-18T22:57:02.751Z,14.81
2022-10-18T22:59:35.169Z,14.83
2022-10-18T23:02:07.114Z,14.86
2022-10-18T23:04:39.093Z,14.87
2022-10-18T23:07:11.070Z,14.86
2022-10-18T23:09:43.159Z,14.88
2022-10-18T23:12:17.112Z,14.91
2022-10-18T23:14:49.125Z,14.86
2022-10-18T23:17:21.112Z,14.81
2022-10-18T23:19:53.253Z,14.80
2022-10-18T23:22:25.131Z,14.69
2022-10-18T23:24:56.976Z,14.63
2022-10-18T23:27:29.221Z,14.75
2022-10-18T23:30:01.201Z,14.71
2022-10-18T23:32:33.360Z,14.50
2022-10-18T23:35:05.617Z,14.44
2022-10-18T23:37:37.976Z,14.52
2022-10-18T23:40:11.949Z,14.59
2022-10-18T23:42:43.898Z,14.56
2022-10-18T23:45:15.818Z,14.54
2022-10-18T23:47:49.359Z,14.59
2022-10-18T23:50:22.439Z,14.61
2022-10-18T23:52:57.172Z,14.63
2022-10-18T23:55:30.140Z,14.39
2022-10-18T23:58:02.217Z,14.43
